Time;durP1;ratioP1;P1;durP2;ratioP2;P2;SDS_P1;SDS_P2;PMS_P1;PMS_P2;Temp;Humidity;BMP_temperature;BMP_pressure;BME280_temperature;BME280_humidity;BME280_pressure;Samples;Min_cycle;Max_cycle;Signal;HPM_P1;HPM_P2
2023/06/29 00:00:21;;;;;;;53.72;33.00;;;;;;;;;;5091005;28;20051;-75
2023/06/29 00:02:48;;;;;;;54.17;34.13;;;;;;;;;;5092220;28;20427;-74
2023/06/29 00:05:14;;;;;;;51.00;32.50;;;;;;;;;;5091179;28;20446;-74
2023/06/29 00:07:41;;;;;;;55.65;34.70;;;;;;;;;;5090951;28;20055;-74
2023/06/29 00:10:08;;;;;;;56.50;34.00;;;;;;;;;;5090485;28;20048;-79
2023/06/29 00:12:34;;;;;;;49.60;32.83;;;;;;;;;;5090923;28;20040;-78
2023/06/29 00:15:00;;;;;;;54.88;34.33;;;;;;;;;;5092906;28;20048;-74
2023/06/29 00:17:26;;;;;;;52.78;34.00;;;;;;;;;;5095568;28;20523;-75
2023/06/29 00:19:52;;;;;;;57.75;34.28;;;;;;;;;;5094845;28;20036;-75
2023/06/29 00:22:21;;;;;;;61.33;36.72;;;;;;;;;;5065090;28;20090;-78
2023/06/29 00:24:54;;;;;;;57.38;35.90;;;;;;;;;;5094757;28;20042;-78
2023/06/29 00:27:21;;;;;;;56.60;35.42;;;;;;;;;;5095048;28;20117;-78
2023/06/29 00:29:47;;;;;;;56.90;35.58;;;;;;;;;;5066345;28;20040;-78
2023/06/29 00:32:13;;;;;;;57.38;36.17;;;;;;;;;;5092731;28;20047;-75
2023/06/29 00:34:39;;;;;;;52.72;34.97;;;;;;;;;;5094905;28;20046;-77
2023/06/29 00:37:06;;;;;;;55.08;35.55;;;;;;;;;;5094489;28;20036;-77
2023/06/29 00:39:32;;;;;;;57.80;35.10;;;;;;;;;;5094969;28;20473;-77
2023/06/29 00:41:58;;;;;;;53.28;34.65;;;;;;;;;;5077809;28;20032;-77
2023/06/29 00:44:25;;;;;;;56.65;35.80;;;;;;;;;;5080567;28;20028;-78
2023/06/29 00:46:52;;;;;;;58.08;36.60;;;;;;;;;;5094605;28;20047;-78
2023/06/29 00:49:19;;;;;;;58.65;35.72;;;;;;;;;;5094775;28;20496;-78
2023/06/29 00:51:48;;;;;;;57.25;35.75;;;;;;;;;;5094430;28;20048;-78
2023/06/29 00:54:14;;;;;;;54.63;34.10;;;;;;;;;;5094323;28;20059;-74
2023/06/29 00:56:41;;;;;;;59.20;34.80;;;;;;;;;;5094404;28;20048;-75
2023/06/29 00:59:07;;;;;;;52.08;33.38;;;;;;;;;;5093954;28;20044;-74
2023/06/29 01:01:34;;;;;;;51.30;32.80;;;;;;;;;;5094481;28;20040;-75
2023/06/29 01:04:00;;;;;;;56.55;34.03;;;;;;;;;;5094489;28;20040;-74
2023/06/29 01:06:31;;;;;;;54.25;34.25;;;;;;;;;;5094143;28;20079;-74
2023/06/29 01:09:04;;;;;;;51.30;32.60;;;;;;;;;;5094019;28;20040;-74
2023/06/29 01:11:34;;;;;;;61.55;35.10;;;;;;;;;;5093924;28;20052;-74
2023/06/29 01:14:01;;;;;;;55.33;34.13;;;;;;;;;;5093902;28;20089;-74
2023/06/29 01:16:32;;;;;;;55.90;35.35;;;;;;;;;;5094012;28;20036;-74
2023/06/29 01:18:59;;;;;;;52.03;33.13;;;;;;;;;;5093901;28;20488;-74
2023/06/29 01:21:27;;;;;;;51.78;32.70;;;;;;;;;;5095565;28;20032;-74
2023/06/29 01:23:55;;;;;;;50.70;33.10;;;;;;;;;;5094109;28;20043;-75
2023/06/29 01:26:22;;;;;;;50.95;32.42;;;;;;;;;;5093671;28;20040;-75
2023/06/29 01:28:51;;;;;;;49.00;32.22;;;;;;;;;;5076971;28;20127;-75
2023/06/29 01:31:18;;;;;;;51.58;32.08;;;;;;;;;;5093815;28;20080;-78
2023/06/29 01:33:44;;;;;;;52.10;31.77;;;;;;;;;;5093633;28;20039;-75
2023/06/29 01:36:18;;;;;;;51.83;32.70;;;;;;;;;;5093400;28;20044;-75
2023/06/29 01:38:48;;;;;;;51.20;31.90;;;;;;;;;;5093589;28;20039;-75
2023/06/29 01:41:16;;;;;;;47.08;31.65;;;;;;;;;;5093194;28;20166;-75
2023/06/29 01:43:43;;;;;;;49.88;30.20;;;;;;;;;;5093437;28;20076;-74
2023/06/29 01:46:10;;;;;;;51.88;30.77;;;;;;;;;;5092904;28;20059;-75
2023/06/29 01:48:37;;;;;;;51.10;30.60;;;;;;;;;;5093547;28;20058;-75
2023/06/29 01:51:03;;;;;;;50.58;30.83;;;;;;;;;;5092998;28;20047;-75
2023/06/29 01:53:29;;;;;;;45.47;30.98;;;;;;;;;;5093089;28;20052;-75
2023/06/29 01:55:55;;;;;;;45.60;28.40;;;;;;;;;;5076311;28;20473;-75
2023/06/29 01:58:21;;;;;;;50.40;30.40;;;;;;;;;;5093123;28;20040;-75
2023/06/29 02:00:47;;;;;;;45.03;28.65;;;;;;;;;;5092755;28;20067;-75
2023/06/29 02:03:13;;;;;;;47.35;29.08;;;;;;;;;;5087817;28;20051;-74
2023/06/29 02:05:39;;;;;;;46.60;29.67;;;;;;;;;;5090106;28;20048;-78
2023/06/29 02:08:05;;;;;;;48.42;29.60;;;;;;;;;;5091793;28;20032;-75
2023/06/29 02:10:32;;;;;;;49.58;29.10;;;;;;;;;;5092906;28;20040;-75
2023/06/29 02:12:58;;;;;;;45.20;28.80;;;;;;;;;;5076325;28;20463;-75
2023/06/29 02:15:24;;;;;;;48.53;29.48;;;;;;;;;;5092433;28;20104;-75
2023/06/29 02:17:50;;;;;;;43.33;26.77;;;;;;;;;;5076296;28;20393;-74
2023/06/29 02:20:17;;;;;;;44.65;27.00;;;;;;;;;;5092494;28;20032;-75
2023/06/29 02:22:43;;;;;;;43.78;26.90;;;;;;;;;;5092846;28;20162;-74
2023/06/29 02:25:14;;;;;;;40.22;26.20;;;;;;;;;;5075600;28;20055;-77
2023/06/29 02:27:40;;;;;;;43.13;26.80;;;;;;;;;;5092268;28;20048;-75
2023/06/29 02:30:07;;;;;;;40.70;25.85;;;;;;;;;;5092754;28;20047;-74
2023/06/29 02:32:33;;;;;;;43.05;26.23;;;;;;;;;;5092228;28;20044;-74
2023/06/29 02:34:59;;;;;;;39.13;26.02;;;;;;;;;;5092580;28;20172;-74
2023/06/29 02:37:25;;;;;;;39.22;24.70;;;;;;;;;;5091308;28;20043;-74
2023/06/29 02:39:51;;;;;;;39.28;25.17;;;;;;;;;;5092486;28;20115;-77
2023/06/29 02:42:17;;;;;;;43.17;26.40;;;;;;;;;;5075462;28;20392;-77
2023/06/29 02:44:43;;;;;;;36.25;22.77;;;;;;;;;;5092373;28;20036;-77
2023/06/29 02:47:10;;;;;;;38.42;24.42;;;;;;;;;;5074952;28;20044;-77
2023/06/29 02:49:36;;;;;;;34.25;22.77;;;;;;;;;;5092712;28;20048;-77
2023/06/29 02:52:02;;;;;;;37.78;24.15;;;;;;;;;;5092011;28;20060;-77
2023/06/29 02:54:28;;;;;;;38.42;22.98;;;;;;;;;;5091886;28;20044;-77
2023/06/29 02:56:54;;;;;;;34.65;22.83;;;;;;;;;;5091736;28;20028;-77
2023/06/29 02:59:21;;;;;;;36.05;22.33;;;;;;;;;;5091724;28;20039;-77
2023/06/29 03:01:47;;;;;;;39.25;23.48;;;;;;;;;;5092134;28;20036;-77
2023/06/29 03:04:13;;;;;;;32.85;21.98;;;;;;;;;;5074871;28;20047;-78
2023/06/29 03:06:39;;;;;;;33.90;21.38;;;;;;;;;;5075254;28;20445;-75
2023/06/29 03:09:06;;;;;;;34.33;22.52;;;;;;;;;;5093141;28;20063;-75
2023/06/29 03:11:32;;;;;;;35.95;21.92;;;;;;;;;;5075004;28;20048;-75
2023/06/29 03:13:58;;;;;;;33.20;20.17;;;;;;;;;;5091703;28;20040;-74
2023/06/29 03:16:24;;;;;;;37.47;21.73;;;;;;;;;;5091558;28;20067;-75
2023/06/29 03:18:50;;;;;;;35.75;21.45;;;;;;;;;;5091692;28;20040;-74
2023/06/29 03:21:18;;;;;;;34.88;21.42;;;;;;;;;;5091453;28;20039;-74
2023/06/29 03:23:44;;;;;;;35.83;21.15;;;;;;;;;;5091775;28;20392;-77
2023/06/29 03:26:10;;;;;;;34.15;20.73;;;;;;;;;;5091464;28;20400;-75
2023/06/29 03:28:36;;;;;;;32.47;21.40;;;;;;;;;;5091623;28;20040;-74
2023/06/29 03:31:02;;;;;;;35.72;20.83;;;;;;;;;;5092869;28;20036;-77
2023/06/29 03:33:28;;;;;;;36.28;20.38;;;;;;;;;;5092458;28;20036;-77
2023/06/29 03:35:54;;;;;;;32.92;20.75;;;;;;;;;;5091286;28;20044;-77
2023/06/29 03:38:20;;;;;;;35.00;21.50;;;;;;;;;;5074189;28;20040;-77
2023/06/29 03:40:46;;;;;;;34.70;19.80;;;;;;;;;;5074809;28;20169;-77
2023/06/29 03:43:12;;;;;;;31.60;20.33;;;;;;;;;;5090926;28;20047;-77
2023/06/29 03:45:38;;;;;;;32.38;19.55;;;;;;;;;;5091387;28;20047;-78
2023/06/29 03:48:05;;;;;;;30.88;19.75;;;;;;;;;;5077041;28;20127;-77
2023/06/29 03:50:31;;;;;;;30.88;18.85;;;;;;;;;;5074154;28;20066;-77
2023/06/29 03:52:57;;;;;;;28.27;18.55;;;;;;;;;;5090804;28;20051;-77
2023/06/29 03:55:24;;;;;;;30.02;18.83;;;;;;;;;;5090770;28;20046;-77
2023/06/29 03:57:50;;;;;;;31.75;19.23;;;;;;;;;;5092575;28;20523;-77
2023/06/29 04:00:17;;;;;;;29.55;19.00;;;;;;;;;;5090883;28;20419;-77
2023/06/29 04:02:43;;;;;;;28.45;18.38;;;;;;;;;;5088390;28;20556;-77
2023/06/29 04:05:09;;;;;;;27.48;17.98;;;;;;;;;;5090152;28;20083;-77
2023/06/29 04:07:36;;;;;;;30.42;18.23;;;;;;;;;;5090211;28;20036;-77
2023/06/29 04:10:02;;;;;;;30.30;18.88;;;;;;;;;;5090473;28;20063;-77
2023/06/29 04:12:28;;;;;;;27.45;18.23;;;;;;;;;;5090484;28;20066;-78
2023/06/29 04:14:54;;;;;;;29.33;19.73;;;;;;;;;;5091027;28;20040;-77
2023/06/29 04:17:20;;;;;;;32.20;19.90;;;;;;;;;;5073524;28;20043;-77
2023/06/29 04:19:46;;;;;;;32.15;19.52;;;;;;;;;;5091271;28;20483;-77
2023/06/29 04:22:13;;;;;;;32.58;19.17;;;;;;;;;;5057033;28;20044;-77
2023/06/29 04:24:39;;;;;;;30.92;18.63;;;;;;;;;;5090627;28;20089;-78
2023/06/29 04:27:05;;;;;;;32.22;19.60;;;;;;;;;;5073966;28;20070;-77
2023/06/29 04:29:31;;;;;;;31.35;19.55;;;;;;;;;;5090457;28;20114;-77
2023/06/29 04:31:58;;;;;;;28.83;19.13;;;;;;;;;;5090734;28;20040;-77
2023/06/29 04:34:24;;;;;;;30.02;18.85;;;;;;;;;;5073744;28;20151;-77
2023/06/29 04:36:50;;;;;;;32.67;19.45;;;;;;;;;;5091021;28;20497;-74
2023/06/29 04:39:16;;;;;;;28.45;18.98;;;;;;;;;;5090574;28;20043;-74
2023/06/29 04:41:43;;;;;;;33.78;19.25;;;;;;;;;;5090559;28;20089;-75
2023/06/29 04:44:09;;;;;;;29.15;18.80;;;;;;;;;;5090588;28;20051;-74
2023/06/29 04:46:38;;;;;;;29.30;19.58;;;;;;;;;;5091762;28;20036;-75
2023/06/29 04:49:07;;;;;;;30.55;19.83;;;;;;;;;;5073886;28;20493;-75
2023/06/29 04:51:34;;;;;;;32.50;18.52;;;;;;;;;;5090150;28;20036;-75
2023/06/29 04:54:01;;;;;;;28.73;18.70;;;;;;;;;;5090505;28;20055;-75
2023/06/29 04:56:27;;;;;;;30.88;19.25;;;;;;;;;;5090230;28;20078;-75
2023/06/29 04:58:53;;;;;;;30.05;18.50;;;;;;;;;;5090715;28;20071;-74
2023/06/29 05:01:19;;;;;;;29.95;18.55;;;;;;;;;;5093249;28;20104;-75
2023/06/29 05:03:45;;;;;;;31.77;20.63;;;;;;;;;;5094242;28;20104;-75
2023/06/29 05:06:11;;;;;;;35.90;19.42;;;;;;;;;;5094257;28;20055;-76
2023/06/29 05:08:37;;;;;;;32.75;18.70;;;;;;;;;;5094164;28;20496;-75
2023/06/29 05:11:03;;;;;;;28.73;18.10;;;;;;;;;;5077505;28;20070;-76
2023/06/29 05:13:29;;;;;;;31.70;19.23;;;;;;;;;;5077027;28;20110;-76
2023/06/29 05:15:55;;;;;;;32.92;18.98;;;;;;;;;;5077695;28;20119;-75
2023/06/29 05:18:22;;;;;;;31.40;18.98;;;;;;;;;;5063867;28;20086;-76
2023/06/29 05:20:48;;;;;;;33.72;19.40;;;;;;;;;;5094673;28;20040;-75
2023/06/29 05:23:14;;;;;;;33.95;20.40;;;;;;;;;;5077516;28;20463;-75
2023/06/29 05:25:41;;;;;;;30.20;18.88;;;;;;;;;;5077306;28;20040;-73
2023/06/29 05:28:07;;;;;;;34.33;19.55;;;;;;;;;;5094177;28;20036;-79
2023/06/29 05:30:34;;;;;;;29.98;20.25;;;;;;;;;;5094356;28;20040;-79
2023/06/29 05:33:00;;;;;;;34.55;20.27;;;;;;;;;;5094726;28;20046;-79
2023/06/29 05:35:26;;;;;;;28.90;19.70;;;;;;;;;;5094649;28;20044;-76
2023/06/29 05:37:52;;;;;;;33.53;20.33;;;;;;;;;;5093877;28;20058;-75
2023/06/29 05:40:18;;;;;;;30.27;19.27;;;;;;;;;;5093692;28;20044;-75
2023/06/29 05:42:45;;;;;;;35.05;20.73;;;;;;;;;;5076601;28;20082;-75
2023/06/29 05:45:12;;;;;;;29.83;19.90;;;;;;;;;;5093532;28;20047;-74
2023/06/29 05:47:38;;;;;;;32.95;20.35;;;;;;;;;;5076379;28;20044;-75
2023/06/29 05:50:04;;;;;;;33.22;20.90;;;;;;;;;;5093148;28;20150;-74
2023/06/29 05:52:33;;;;;;;30.40;20.10;;;;;;;;;;5092797;28;20418;-75
2023/06/29 05:54:59;;;;;;;31.20;19.70;;;;;;;;;;5093292;28;20044;-75
2023/06/29 05:57:25;;;;;;;31.33;20.35;;;;;;;;;;5093230;28;20123;-75
2023/06/29 05:59:51;;;;;;;35.47;20.65;;;;;;;;;;5092866;28;20393;-75
2023/06/29 06:02:18;;;;;;;32.83;20.92;;;;;;;;;;5093200;28;20036;-81
2023/06/29 06:04:44;;;;;;;34.78;20.52;;;;;;;;;;5092803;28;20114;-81
2023/06/29 06:07:10;;;;;;;33.75;20.67;;;;;;;;;;5093359;28;20066;-80
2023/06/29 06:09:36;;;;;;;31.35;21.10;;;;;;;;;;5092777;28;20118;-80
2023/06/29 06:12:05;;;;;;;34.72;21.35;;;;;;;;;;5092254;28;20093;-81
2023/06/29 06:14:31;;;;;;;30.83;20.48;;;;;;;;;;5093192;28;20051;-80
2023/06/29 06:16:57;;;;;;;32.78;21.38;;;;;;;;;;5093378;28;20127;-80
2023/06/29 06:19:23;;;;;;;32.42;20.88;;;;;;;;;;5092964;28;20036;-75
2023/06/29 06:21:49;;;;;;;32.10;20.15;;;;;;;;;;5075739;28;20043;-80
2023/06/29 06:24:15;;;;;;;32.45;21.30;;;;;;;;;;5094234;28;20075;-80
2023/06/29 06:26:41;;;;;;;34.58;21.08;;;;;;;;;;5092705;28;20428;-80
2023/06/29 06:29:08;;;;;;;34.63;20.95;;;;;;;;;;5092786;28;20048;-81
2023/06/29 06:31:34;;;;;;;30.92;21.02;;;;;;;;;;5092440;28;20174;-80
2023/06/29 06:34:00;;;;;;;31.45;20.60;;;;;;;;;;5093807;28;20522;-80
2023/06/29 06:36:30;;;;;;;32.30;21.27;;;;;;;;;;5092693;28;20040;-80
2023/06/29 06:38:56;;;;;;;31.88;21.05;;;;;;;;;;5092547;28;20093;-80
2023/06/29 06:41:23;;;;;;;30.95;20.83;;;;;;;;;;5093204;28;20044;-80
2023/06/29 06:43:49;;;;;;;33.22;21.70;;;;;;;;;;5076825;28;20054;-80
2023/06/29 06:46:16;;;;;;;31.90;21.10;;;;;;;;;;5092669;28;20044;-81
2023/06/29 06:48:42;;;;;;;32.40;21.23;;;;;;;;;;5092152;28;20043;-81
2023/06/29 06:51:08;;;;;;;32.13;21.10;;;;;;;;;;5075454;28;20044;-81
2023/06/29 06:53:34;;;;;;;33.65;21.38;;;;;;;;;;5093670;28;20464;-80
2023/06/29 06:56:00;;;;;;;36.95;21.67;;;;;;;;;;5092099;28;20048;-80
2023/06/29 06:58:26;;;;;;;31.50;21.25;;;;;;;;;;5092779;28;20044;-81
2023/06/29 07:00:52;;;;;;;33.83;21.70;;;;;;;;;;5092019;28;20051;-80
2023/06/29 07:03:19;;;;;;;35.53;22.05;;;;;;;;;;5075618;28;20488;-79
2023/06/29 07:05:45;;;;;;;36.85;22.25;;;;;;;;;;5093120;28;20045;-81
2023/06/29 07:08:11;;;;;;;37.10;21.25;;;;;;;;;;5092411;28;20084;-79
2023/06/29 07:10:37;;;;;;;32.50;20.67;;;;;;;;;;5092303;28;20032;-80
2023/06/29 07:13:03;;;;;;;30.55;20.33;;;;;;;;;;5091994;28;20036;-80
2023/06/29 07:15:29;;;;;;;31.75;20.52;;;;;;;;;;5092274;28;20114;-80
2023/06/29 07:17:55;;;;;;;29.88;21.13;;;;;;;;;;5091695;28;20040;-80
2023/06/29 07:20:22;;;;;;;31.85;20.88;;;;;;;;;;5091843;28;20035;-80
2023/06/29 07:22:48;;;;;;;32.17;20.10;;;;;;;;;;5091455;28;20097;-80
2023/06/29 07:25:15;;;;;;;31.45;20.92;;;;;;;;;;5092531;28;20049;-80
2023/06/29 07:27:42;;;;;;;30.60;20.42;;;;;;;;;;5078735;28;20523;-78
2023/06/29 07:30:08;;;;;;;33.78;20.63;;;;;;;;;;5091737;28;20075;-79
2023/06/29 07:32:34;;;;;;;27.20;19.95;;;;;;;;;;5060896;28;20040;-79
2023/06/29 07:35:00;;;;;;;29.80;20.83;;;;;;;;;;5074694;28;20047;-79
2023/06/29 07:37:27;;;;;;;33.13;20.55;;;;;;;;;;5091576;28;20044;-79
2023/06/29 07:39:53;;;;;;;33.42;21.08;;;;;;;;;;5091288;28;20036;-76
2023/06/29 07:42:19;;;;;;;31.38;20.95;;;;;;;;;;5074480;28;20048;-80
2023/06/29 07:44:45;;;;;;;32.35;21.23;;;;;;;;;;5091248;28;20370;-79
2023/06/29 07:47:11;;;;;;;32.92;20.40;;;;;;;;;;5074505;28;20178;-78
2023/06/29 07:49:37;;;;;;;34.28;21.35;;;;;;;;;;5077122;28;20035;-78
2023/06/29 07:52:04;;;;;;;30.70;19.67;;;;;;;;;;5090665;28;20139;-79
2023/06/29 07:54:30;;;;;;;34.97;21.30;;;;;;;;;;5091226;28;20044;-78
2023/06/29 07:56:56;;;;;;;32.00;20.73;;;;;;;;;;5090824;28;20036;-78
2023/06/29 07:59:22;;;;;;;31.65;21.83;;;;;;;;;;5091054;28;20101;-77
2023/06/29 08:01:49;;;;;;;32.72;21.48;;;;;;;;;;5091050;28;20392;-78
2023/06/29 08:04:16;;;;;;;32.97;21.13;;;;;;;;;;5091280;28;20123;-78
2023/06/29 08:06:43;;;;;;;33.97;20.73;;;;;;;;;;5091322;28;20044;-78
2023/06/29 08:09:10;;;;;;;36.00;21.05;;;;;;;;;;5091029;28;20055;-78
2023/06/29 08:11:37;;;;;;;33.17;20.98;;;;;;;;;;5091505;28;20048;-78
2023/06/29 08:14:04;;;;;;;35.08;21.42;;;;;;;;;;5090763;28;20040;-77
2023/06/29 08:16:30;;;;;;;34.65;22.27;;;;;;;;;;5092708;28;20056;-78
2023/06/29 08:18:56;;;;;;;32.55;20.45;;;;;;;;;;5090553;28;20044;-78
2023/06/29 08:21:22;;;;;;;33.78;20.15;;;;;;;;;;5091108;28;20044;-78
2023/06/29 08:23:50;;;;;;;34.40;21.15;;;;;;;;;;5090808;28;20043;-78
2023/06/29 08:26:16;;;;;;;30.85;20.40;;;;;;;;;;5074804;28;20408;-78
2023/06/29 08:28:43;;;;;;;31.83;21.13;;;;;;;;;;5091967;28;20040;-77
2023/06/29 08:31:09;;;;;;;32.15;19.55;;;;;;;;;;5090395;28;20040;-77
2023/06/29 08:33:35;;;;;;;33.03;21.00;;;;;;;;;;5090578;28;20071;-78
2023/06/29 08:36:01;;;;;;;30.73;20.42;;;;;;;;;;5092898;28;20062;-77
2023/06/29 08:38:27;;;;;;;34.85;21.30;;;;;;;;;;5094649;28;20036;-77
2023/06/29 08:40:56;;;;;;;30.55;21.73;;;;;;;;;;5094237;28;20036;-77
2023/06/29 08:43:22;;;;;;;34.13;22.17;;;;;;;;;;5095889;28;20400;-77
2023/06/29 08:45:49;;;;;;;31.17;20.65;;;;;;;;;;5094910;28;20501;-77
2023/06/29 08:48:16;;;;;;;30.35;19.63;;;;;;;;;;5077671;28;20101;-77
2023/06/29 08:50:44;;;;;;;30.55;19.63;;;;;;;;;;5094733;28;20446;-77
2023/06/29 08:53:11;;;;;;;27.88;18.33;;;;;;;;;;5094628;28;20059;-78
2023/06/29 08:55:37;;;;;;;27.77;18.83;;;;;;;;;;5095008;28;20485;-78
2023/06/29 08:58:04;;;;;;;29.42;19.17;;;;;;;;;;5095710;28;20503;-77
2023/06/29 09:00:30;;;;;;;30.58;18.85;;;;;;;;;;5095986;28;20049;-75
2023/06/29 09:02:56;;;;;;;26.35;18.73;;;;;;;;;;5094504;28;20040;-77
2023/06/29 09:05:23;;;;;;;31.42;19.60;;;;;;;;;;5094448;28;20044;-77
2023/06/29 09:07:50;;;;;;;28.48;19.40;;;;;;;;;;5094655;28;20040;-77
2023/06/29 09:10:16;;;;;;;28.17;19.65;;;;;;;;;;5095208;28;20044;-77
2023/06/29 09:12:42;;;;;;;28.02;18.80;;;;;;;;;;5094144;28;20044;-75
2023/06/29 09:15:10;;;;;;;29.40;20.33;;;;;;;;;;5094219;28;20054;-77
2023/06/29 09:17:36;;;;;;;32.50;19.73;;;;;;;;;;5094255;28;20043;-77
2023/06/29 09:20:15;;;;;;;29.00;20.00;;;;;;;;;;5094340;28;20519;-77
2023/06/29 09:22:42;;;;;;;30.20;20.30;;;;;;;;;;5077209;28;20043;-77
2023/06/29 09:25:10;;;;;;;30.08;19.88;;;;;;;;;;5093751;28;20059;-76
2023/06/29 09:27:36;;;;;;;30.73;20.95;;;;;;;;;;5094107;28;20044;-77
2023/06/29 09:30:03;;;;;;;34.28;22.08;;;;;;;;;;5076886;28;20039;-77
2023/06/29 09:32:30;;;;;;;31.33;20.52;;;;;;;;;;5093812;28;20043;-77
2023/06/29 09:34:56;;;;;;;29.55;20.08;;;;;;;;;;5093895;28;20039;-75
2023/06/29 09:37:22;;;;;;;33.33;21.38;;;;;;;;;;5093599;28;20040;-76
2023/06/29 09:39:58;;;;;;;32.35;22.23;;;;;;;;;;5093713;28;20530;-77
2023/06/29 09:42:24;;;;;;;32.22;20.42;;;;;;;;;;5094809;28;20058;-77
2023/06/29 09:44:50;;;;;;;30.25;20.83;;;;;;;;;;5094909;28;20050;-73
2023/06/29 09:47:19;;;;;;;29.77;19.77;;;;;;;;;;5076168;28;20044;-74
2023/06/29 09:49:47;;;;;;;32.28;21.83;;;;;;;;;;5093530;28;20044;-73
2023/06/29 09:52:13;;;;;;;31.58;20.73;;;;;;;;;;5092945;28;20118;-74
2023/06/29 09:54:39;;;;;;;33.35;22.23;;;;;;;;;;5093283;28;20040;-74
2023/06/29 09:57:07;;;;;;;33.00;22.58;;;;;;;;;;5094266;28;20119;-74
2023/06/29 09:59:44;;;;;;;33.45;22.20;;;;;;;;;;5093241;28;20552;-74
2023/06/29 10:02:10;;;;;;;34.72;23.25;;;;;;;;;;5093186;28;20048;-73
2023/06/29 10:04:36;;;;;;;33.40;23.15;;;;;;;;;;5091211;28;20488;-74
2023/06/29 10:07:05;;;;;;;32.63;22.52;;;;;;;;;;5063980;28;20046;-73
2023/06/29 10:09:36;;;;;;;32.38;22.63;;;;;;;;;;5076017;28;20115;-75
2023/06/29 10:12:03;;;;;;;33.92;23.17;;;;;;;;;;5093903;28;20577;-76
2023/06/29 10:14:30;;;;;;;32.47;23.35;;;;;;;;;;5076163;28;20050;-75
2023/06/29 10:16:57;;;;;;;32.88;23.02;;;;;;;;;;5093093;28;20401;-75
2023/06/29 10:19:23;;;;;;;32.00;23.30;;;;;;;;;;5092720;28;20442;-75
2023/06/29 10:21:59;;;;;;;39.10;23.48;;;;;;;;;;5093077;28;20520;-75
2023/06/29 10:24:27;;;;;;;34.08;22.10;;;;;;;;;;5092413;28;20077;-75
2023/06/29 10:26:54;;;;;;;33.50;23.38;;;;;;;;;;5093097;28;20044;-72
2023/06/29 10:29:21;;;;;;;33.97;22.23;;;;;;;;;;5092156;28;20044;-74
2023/06/29 10:31:50;;;;;;;34.65;22.75;;;;;;;;;;5075839;28;20051;-73
2023/06/29 10:34:16;;;;;;;34.97;23.52;;;;;;;;;;5092097;28;20032;-74
2023/06/29 10:36:46;;;;;;;34.00;23.23;;;;;;;;;;5094015;28;20055;-73
2023/06/29 10:39:31;;;;;;;36.45;22.52;;;;;;;;;;5091945;28;20047;-74
2023/06/29 10:41:57;;;;;;;30.83;22.07;;;;;;;;;;5092279;28;20036;-75
2023/06/29 10:44:34;;;;;;;33.13;23.17;;;;;;;;;;5091795;28;20047;-76
2023/06/29 10:47:00;;;;;;;33.58;22.85;;;;;;;;;;5075626;28;20048;-76
2023/06/29 10:49:27;;;;;;;36.05;24.55;;;;;;;;;;5092147;28;20496;-75
2023/06/29 10:51:54;;;;;;;34.50;23.55;;;;;;;;;;5092019;28;20067;-75
2023/06/29 10:54:24;;;;;;;33.58;23.23;;;;;;;;;;5091613;28;20182;-75
2023/06/29 10:56:57;;;;;;;35.30;23.33;;;;;;;;;;5092340;28;20516;-76
2023/06/29 10:59:24;;;;;;;36.55;23.35;;;;;;;;;;5092437;28;20032;-75
2023/06/29 11:01:51;;;;;;;34.95;23.58;;;;;;;;;;5092020;28;20115;-75
2023/06/29 11:04:17;;;;;;;35.15;24.08;;;;;;;;;;5091986;28;20048;-75
2023/06/29 11:06:43;;;;;;;33.65;23.50;;;;;;;;;;5093188;28;20071;-75
2023/06/29 11:09:16;;;;;;;36.20;23.85;;;;;;;;;;5092127;28;20411;-75
2023/06/29 11:11:42;;;;;;;33.92;22.25;;;;;;;;;;5090472;28;20040;-75
2023/06/29 11:14:11;;;;;;;31.15;22.65;;;;;;;;;;5093103;28;20524;-75
2023/06/29 11:16:39;;;;;;;34.97;24.85;;;;;;;;;;5091985;28;20043;-75
2023/06/29 11:19:05;;;;;;;35.83;23.58;;;;;;;;;;5075155;28;20484;-73
2023/06/29 11:21:31;;;;;;;33.97;23.40;;;;;;;;;;5091908;28;20044;-75
2023/06/29 11:23:57;;;;;;;32.85;22.67;;;;;;;;;;5093080;28;20044;-75
2023/06/29 11:26:24;;;;;;;35.17;22.42;;;;;;;;;;5092920;28;20054;-75
2023/06/29 11:28:50;;;;;;;33.95;23.98;;;;;;;;;;5093703;28;20063;-75
2023/06/29 11:31:17;;;;;;;34.75;22.77;;;;;;;;;;5094290;28;20043;-75
2023/06/29 11:33:51;;;;;;;33.45;23.38;;;;;;;;;;5092255;28;20051;-75
2023/06/29 11:36:29;;;;;;;34.83;23.13;;;;;;;;;;5078487;28;20040;-74
2023/06/29 11:39:05;;;;;;;33.78;22.40;;;;;;;;;;5075059;28;20068;-75
2023/06/29 11:41:31;;;;;;;33.83;23.80;;;;;;;;;;5091514;28;20094;-75
2023/06/29 11:44:00;;;;;;;34.15;23.15;;;;;;;;;;5092578;28;20566;-75
2023/06/29 11:46:26;;;;;;;33.40;23.70;;;;;;;;;;5093326;28;20051;-75
2023/06/29 11:48:55;;;;;;;35.50;23.60;;;;;;;;;;5091492;28;20101;-76
2023/06/29 11:51:24;;;;;;;41.25;24.50;;;;;;;;;;5090597;28;20032;-75
2023/06/29 11:53:53;;;;;;;34.40;23.42;;;;;;;;;;5090948;28;20060;-75
2023/06/29 11:56:34;;;;;;;34.97;23.45;;;;;;;;;;5090539;28;20043;-76
2023/06/29 11:59:07;;;;;;;33.80;23.38;;;;;;;;;;5091163;28;20044;-75
2023/06/29 12:01:37;;;;;;;35.95;22.83;;;;;;;;;;5090999;28;20619;-75
2023/06/29 12:04:06;;;;;;;37.65;23.13;;;;;;;;;;5075066;28;20512;-75
2023/06/29 12:06:50;;;;;;;34.60;23.23;;;;;;;;;;5090509;28;20078;-75
2023/06/29 12:09:16;;;;;;;39.08;22.85;;;;;;;;;;5073034;28;20065;-76
2023/06/29 12:11:42;;;;;;;32.08;21.60;;;;;;;;;;5090285;28;20085;-74
2023/06/29 12:14:11;;;;;;;28.58;20.63;;;;;;;;;;5074292;28;20051;-75
2023/06/29 12:16:38;;;;;;;28.77;20.17;;;;;;;;;;5091692;28;20043;-76
2023/06/29 12:19:14;;;;;;;31.85;20.80;;;;;;;;;;5074332;28;20040;-75
2023/06/29 12:21:40;;;;;;;32.30;20.17;;;;;;;;;;5090578;28;20055;-75
2023/06/29 12:24:06;;;;;;;30.35;21.15;;;;;;;;;;5090884;28;20071;-76
2023/06/29 12:26:32;;;;;;;30.50;20.08;;;;;;;;;;5057124;28;20056;-75
2023/06/29 12:28:58;;;;;;;30.25;20.48;;;;;;;;;;5090751;28;20078;-75
2023/06/29 12:31:28;;;;;;;30.83;22.00;;;;;;;;;;5090606;28;20074;-75
2023/06/29 12:33:55;;;;;;;27.55;20.13;;;;;;;;;;5090470;28;20113;-75
2023/06/29 12:36:21;;;;;;;33.20;21.45;;;;;;;;;;5090677;28;20496;-75
2023/06/29 12:38:50;;;;;;;35.00;21.73;;;;;;;;;;5091843;28;20040;-75
2023/06/29 12:41:16;;;;;;;29.50;21.60;;;;;;;;;;5090579;28;20032;-74
2023/06/29 12:43:43;;;;;;;30.25;20.95;;;;;;;;;;5090448;28;20075;-75
2023/06/29 12:46:10;;;;;;;25.10;18.00;;;;;;;;;;5073753;28;20039;-75
2023/06/29 12:48:36;;;;;;;22.55;16.50;;;;;;;;;;5090460;28;20078;-75
2023/06/29 12:51:03;;;;;;;23.15;15.10;;;;;;;;;;5091860;28;20063;-73
2023/06/29 12:53:29;;;;;;;21.98;15.48;;;;;;;;;;5089866;28;20101;-74
2023/06/29 12:55:56;;;;;;;23.33;15.93;;;;;;;;;;5090727;28;20484;-72
2023/06/29 12:58:22;;;;;;;21.85;15.00;;;;;;;;;;5090018;28;20085;-74
2023/06/29 13:00:48;;;;;;;20.10;13.68;;;;;;;;;;5091796;28;20040;-74
2023/06/29 13:03:14;;;;;;;24.30;13.35;;;;;;;;;;5090503;28;20079;-74
2023/06/29 13:05:44;;;;;;;21.80;14.07;;;;;;;;;;5090131;28;20090;-74
2023/06/29 13:08:11;;;;;;;24.48;15.52;;;;;;;;;;5091470;28;20051;-75
2023/06/29 13:10:37;;;;;;;24.48;16.33;;;;;;;;;;5090304;28;20044;-75
2023/06/29 13:13:05;;;;;;;28.02;16.60;;;;;;;;;;5073146;28;20052;-74
2023/06/29 13:15:31;;;;;;;28.13;17.13;;;;;;;;;;5090118;28;20066;-75
2023/06/29 13:17:57;;;;;;;31.77;17.52;;;;;;;;;;5073429;28;20036;-75
2023/06/29 13:20:23;;;;;;;26.75;17.90;;;;;;;;;;5073335;28;20072;-75
2023/06/29 13:22:49;;;;;;;28.80;17.40;;;;;;;;;;5093964;28;20049;-75
2023/06/29 13:25:15;;;;;;;28.17;16.75;;;;;;;;;;5095046;28;20050;-75
2023/06/29 13:27:43;;;;;;;25.50;16.42;;;;;;;;;;5093725;28;20498;-75
2023/06/29 13:30:09;;;;;;;28.23;16.58;;;;;;;;;;5094001;28;20093;-75
2023/06/29 13:32:35;;;;;;;24.70;16.15;;;;;;;;;;5093218;28;20085;-75
2023/06/29 13:35:01;;;;;;;24.58;16.17;;;;;;;;;;5093992;28;20122;-76
2023/06/29 13:37:28;;;;;;;26.42;16.67;;;;;;;;;;5093065;28;20078;-75
2023/06/29 13:39:55;;;;;;;28.15;17.25;;;;;;;;;;5093901;28;20047;-75
2023/06/29 13:42:21;;;;;;;28.80;17.23;;;;;;;;;;5076861;28;20505;-75
2023/06/29 13:44:47;;;;;;;27.33;16.38;;;;;;;;;;5093175;28;20042;-76
2023/06/29 13:47:17;;;;;;;28.42;17.65;;;;;;;;;;5094277;28;20130;-77
2023/06/29 13:49:44;;;;;;;27.42;17.45;;;;;;;;;;5076523;28;20404;-75
2023/06/29 13:52:10;;;;;;;26.55;18.10;;;;;;;;;;5093510;28;20064;-75
2023/06/29 13:54:36;;;;;;;31.52;18.95;;;;;;;;;;5093326;28;20044;-76
2023/06/29 13:57:03;;;;;;;28.42;18.73;;;;;;;;;;5076830;28;20093;-76
2023/06/29 13:59:29;;;;;;;31.48;19.23;;;;;;;;;;5094361;28;20028;-75
2023/06/29 14:01:56;;;;;;;30.52;19.38;;;;;;;;;;5093531;28;20112;-75
2023/06/29 14:04:24;;;;;;;28.58;19.25;;;;;;;;;;5092968;28;20039;-75
2023/06/29 14:06:50;;;;;;;31.92;20.45;;;;;;;;;;5079361;28;20577;-75
2023/06/29 14:09:16;;;;;;;32.63;20.17;;;;;;;;;;5076097;28;20072;-75
2023/06/29 14:11:42;;;;;;;31.83;20.33;;;;;;;;;;5092560;28;20040;-76
2023/06/29 14:14:09;;;;;;;33.55;20.08;;;;;;;;;;5092876;28;20115;-76